Accueil
METAR-TAF:

METAR-TAF

Aéroports :

Beaufort, Caroline du Sud, États-Unis

latitude: 32-29-37N, longitude: 080-42-11W, altitude: 11 m

Observation

Le bulletin a été fait il y a 56 minutes, à 21:56 UTC
Vent 12 kt de ouest/sud-ouest
Température 15°C
Humidité 27%
Pression 1018 hPa
Visibilité: 16.1 km
Quelques nuages à une hauteur de 3000 ft

METAR: KNBC 282156Z 25012KT 10SM FEW030 15/M04 A3007 RMK AO2 SLP184 T01501039 $

Heure: 17:52 (22:52 UTC)

Prévision

Prévision valable du 28 à 21 UTC au 29 à 21 UTC
Vent 12 kt de ouest/nord-ouest avec des rafales jusqu'à 22 kt
Visibilité 10 km ou plus
Quelques nuages à une hauteur de 3000 ft
Evoluant progressivement
du 29 à 01 UTC au 29 à 03 UTC
Vent 10 kt de ouest avec des rafales jusqu'à 18 kt
Visibilité 10 km ou plus
Nuages fragmentés à une hauteur de 3000 ft

TAF: KNBC 2821/2921 29012G22KT 9999 FEW030 QNH3003INS BECMG 2901/2903 27010G18KT 9999 BKN030 QNH2995INS T14/2821Z T04/2912Z

Observations et prévisions météorologiques de plus de 4000 aéroports (messages METAR et TAF).

Les stations disponibles sont représentées par des disques jaunes et rouges sur la carte.

Passer la souris dessus pour voir le nom de la station.

Cliquer dessus pour voir les observations et prévisions météorologiques.

Pour changer de carte: cliquez sur les boutons verts avec une croix noire pour zoomer, sur le bouton vert avec un tiret pour effectuer un zoom arrière, ou sur les flèches vertes pour les cartes adjacentes.


METAR-TAF: